Time;durP1;ratioP1;P1;durP2;ratioP2;P2;SDS_P1;SDS_P2;PMS_P1;PMS_P2;Temp;Humidity;BMP_temperature;BMP_pressure;BME280_temperature;BME280_humidity;BME280_pressure;Samples;Min_cycle;Max_cycle;Signal;HPM_P1;HPM_P2
2023/05/16 09:12:14;;;;;;;;;;;;;;;;;;5011780;28;7020;-82
2023/05/16 09:14:41;;;;;;;;;;;;;;;;;;5023222;28;7241;-82
2023/05/16 09:17:07;;;;;;;;;;;;;;;;;;5006535;28;8479;-83
2023/05/16 09:19:40;;;;;;;;;;;;;;;;;;5006414;28;7073;-80
2023/05/16 09:22:08;;;;;;;;;;;;;;;;;;4990476;28;8630;-81
2023/05/16 09:24:37;;;;;;;;;;;;;;;;;;5006561;28;8529;-79
2023/05/16 09:27:10;;;;;;;;;;;;;;;;;;4991315;28;6938;-81
2023/05/16 09:29:35;;;;;;;;;;;;;;;;;;5006543;28;8408;-78
2023/05/16 09:32:09;;;;;;;;;;;;;;;;;;4994191;28;7063;-80
2023/05/16 09:34:55;;;;;;;;;;;;;;;;;;4970043;28;8858;-78
2023/05/16 09:37:21;;;;;;;;;;;;;;;;;;4981206;28;8901;-78
2023/05/16 09:39:47;;;;;;;;;;;;;;;;;;5006080;28;7122;-79
2023/05/16 09:42:14;;;;;;;;;;;;;;;;;;5006018;28;7173;-80
2023/05/16 09:44:40;;;;;;;;;;;;;;;;;;5006574;28;6963;-79
2023/05/16 09:47:06;;;;;;;;;;;;;;;;;;5005938;28;8487;-80
2023/05/16 09:49:32;;;;;;;;;;;;;;;;;;5005603;28;8834;-80
2023/05/16 09:52:03;;;;;;;;;;;;;;;;;;5006063;28;8769;-81
2023/05/16 09:54:30;;;;;;;;;;;;;;;;;;5005948;28;8510;-81
2023/05/16 09:56:56;;;;;;;;;;;;;;;;;;5006210;28;8557;-80
2023/05/16 09:59:21;;;;;;;;;;;;;;;;;;5006265;28;7294;-82
2023/05/16 10:01:50;;;;;;;;;;;;;;;;;;5006038;28;8832;-79
2023/05/16 10:04:15;;;;;;;;;;;;;;;;;;5005778;28;8866;-82
2023/05/16 10:06:42;;;;;;;;;;;;;;;;;;5006003;28;8512;-82
2023/05/16 10:09:12;;;;;;;;;;;;;;;;;;5005940;28;8811;-80
2023/05/16 10:11:42;;;;;;;;;;;;;;;;;;5005368;28;8637;-81
2023/05/16 10:14:11;;;;;;;;;;;;;;;;;;5005407;28;7144;-82
2023/05/16 10:16:41;;;;;;;;;;;;;;;;;;4989018;28;8990;-81
2023/05/16 10:19:07;;;;;;;;;;;;;;;;;;5005464;28;8493;-84
2023/05/16 10:21:35;;;;;;;;;;;;;;;;;;5004070;28;7381;-81
2023/05/16 10:24:03;;;;;;;;;;;;;;;;;;4992143;28;8689;-83
2023/05/16 10:26:30;;;;;;;;;;;;;;;;;;4992049;28;8886;-82
2023/05/16 10:28:55;;;;;;;;;;;;;;;;;;4994058;28;8711;-79
2023/05/16 10:31:21;;;;;;;;;;;;;;;;;;4998490;28;6876;-83
2023/05/16 10:33:47;;;;;;;;;;;;;;;;;;4997336;28;7192;-79
2023/05/16 10:36:15;;;;;;;;;;;;;;;;;;4995587;28;8483;-78
2023/05/16 10:38:42;;;;;;;;;;;;;;;;;;4989195;28;7193;-74
2023/05/16 10:41:09;;;;;;;;;;;;;;;;;;4958391;28;7118;-77
2023/05/16 10:43:35;;;;;;;;;;;;;;;;;;4957414;28;8441;-82
2023/05/16 10:46:11;;;;;;;;;;;;;;;;;;4989758;28;8930;-79
2023/05/16 10:48:38;;;;;;;;;;;;;;;;;;4957630;28;8613;-82
2023/05/16 10:51:22;;;;;;;;;;;;;;;;;;4957491;28;8587;-83
2023/05/16 10:53:59;;;;;;;;;;;;;;;;;;4965265;28;8486;-81
2023/05/16 10:59:24;;;;;;;;;;;;;;;;;;4966013;28;7153;-80
2023/05/16 11:01:58;;;;;;;;;;;;;;;;;;4980915;28;6936;-81
2023/05/16 11:07:37;;;;;;;;;;;;;;;;;;4963826;28;7310;-84
2023/05/16 11:10:09;;;;;;;;;;;;;;;;;;4973888;28;6936;-82
2023/05/16 11:12:45;;;;;;;;;;;;;;;;;;4991766;28;6999;-81
2023/05/16 11:15:22;;;;;;;;;;;;;;;;;;5007560;28;8487;-84
2023/05/16 11:17:48;;;;;;;;;;;;;;;;;;4991033;28;7381;-83
2023/05/16 11:20:26;;;;;;;;;;;;;;;;;;5007730;28;8854;-81
2023/05/16 11:23:11;;;;;;;;;;;;;;;;;;4991247;28;7136;-82
2023/05/16 11:25:39;;;;;;;;;;;;;;;;;;4990599;28;7242;-81
